sensor_id;sensor_type;location;lat;lon;timestamp;temperature;humidity
3816;DHT22;1923;48.154;11.536;2023-06-05T00:02:23;18.80;93.80
3816;DHT22;1923;48.154;11.536;2023-06-05T00:04:51;18.90;94.20
3816;DHT22;1923;48.154;11.536;2023-06-05T00:07:20;18.80;94.60
3816;DHT22;1923;48.154;11.536;2023-06-05T00:09:49;18.80;95.00
3816;DHT22;1923;48.154;11.536;2023-06-05T00:12:17;18.70;95.50
3816;DHT22;1923;48.154;11.536;2023-06-05T00:14:45;18.70;95.70
3816;DHT22;1923;48.154;11.536;2023-06-05T00:17:13;18.70;95.90
3816;DHT22;1923;48.154;11.536;2023-06-05T00:19:41;18.80;95.90
3816;DHT22;1923;48.154;11.536;2023-06-05T00:22:09;18.70;96.10
3816;DHT22;1923;48.154;11.536;2023-06-05T00:24:37;18.60;96.40
3816;DHT22;1923;48.154;11.536;2023-06-05T00:27:07;18.60;96.50
3816;DHT22;1923;48.154;11.536;2023-06-05T00:29:35;18.60;96.60
3816;DHT22;1923;48.154;11.536;2023-06-05T00:32:03;18.60;96.80
3816;DHT22;1923;48.154;11.536;2023-06-05T00:34:31;18.50;97.20
3816;DHT22;1923;48.154;11.536;2023-06-05T00:36:59;18.60;97.40
3816;DHT22;1923;48.154;11.536;2023-06-05T00:39:28;18.60;97.70
3816;DHT22;1923;48.154;11.536;2023-06-05T00:41:55;18.50;97.90
3816;DHT22;1923;48.154;11.536;2023-06-05T00:44:25;18.60;98.70
3816;DHT22;1923;48.154;11.536;2023-06-05T00:46:53;18.50;99.10
3816;DHT22;1923;48.154;11.536;2023-06-05T00:49:21;18.30;99.80
3816;DHT22;1923;48.154;11.536;2023-06-05T00:51:50;18.20;99.90
3816;DHT22;1923;48.154;11.536;2023-06-05T00:54:18;18.30;99.90
3816;DHT22;1923;48.154;11.536;2023-06-05T00:56:47;18.10;99.90
3816;DHT22;1923;48.154;11.536;2023-06-05T00:59:17;18.00;99.90
3816;DHT22;1923;48.154;11.536;2023-06-05T01:01:46;18.00;99.90
3816;DHT22;1923;48.154;11.536;2023-06-05T01:04:15;18.10;99.90
3816;DHT22;1923;48.154;11.536;2023-06-05T01:06:43;18.00;99.90
3816;DHT22;1923;48.154;11.536;2023-06-05T01:09:12;17.80;99.90
3816;DHT22;1923;48.154;11.536;2023-06-05T01:11:45;18.00;99.90
3816;DHT22;1923;48.154;11.536;2023-06-05T01:14:18;18.00;99.90
3816;DHT22;1923;48.154;11.536;2023-06-05T01:16:51;17.80;99.90
3816;DHT22;1923;48.154;11.536;2023-06-05T01:19:21;17.80;99.90
3816;DHT22;1923;48.154;11.536;2023-06-05T01:21:51;17.70;99.90
3816;DHT22;1923;48.154;11.536;2023-06-05T01:24:22;17.60;99.90
3816;DHT22;1923;48.154;11.536;2023-06-05T01:27:02;17.60;99.90
3816;DHT22;1923;48.154;11.536;2023-06-05T01:29:34;17.40;99.90
3816;DHT22;1923;48.154;11.536;2023-06-05T01:32:06;17.40;99.90
3816;DHT22;1923;48.154;11.536;2023-06-05T01:34:39;17.20;99.90
3816;DHT22;1923;48.154;11.536;2023-06-05T01:37:11;17.30;99.90
3816;DHT22;1923;48.154;11.536;2023-06-05T01:39:45;17.30;99.90
3816;DHT22;1923;48.154;11.536;2023-06-05T01:42:14;17.40;99.90
3816;DHT22;1923;48.154;11.536;2023-06-05T01:44:42;17.30;99.90
3816;DHT22;1923;48.154;11.536;2023-06-05T01:47:12;17.20;99.90
3816;DHT22;1923;48.154;11.536;2023-06-05T01:49:40;17.10;99.90
3816;DHT22;1923;48.154;11.536;2023-06-05T01:52:08;17.20;99.90
3816;DHT22;1923;48.154;11.536;2023-06-05T01:54:36;17.20;99.90
3816;DHT22;1923;48.154;11.536;2023-06-05T01:57:07;17.20;99.90
3816;DHT22;1923;48.154;11.536;2023-06-05T01:59:35;17.20;99.90
3816;DHT22;1923;48.154;11.536;2023-06-05T02:02:03;17.20;99.90
3816;DHT22;1923;48.154;11.536;2023-06-05T02:04:31;17.20;99.90
3816;DHT22;1923;48.154;11.536;2023-06-05T02:06:59;17.30;99.90
3816;DHT22;1923;48.154;11.536;2023-06-05T02:09:30;17.20;99.90
3816;DHT22;1923;48.154;11.536;2023-06-05T02:12:00;17.10;99.90
3816;DHT22;1923;48.154;11.536;2023-06-05T02:14:32;17.30;99.90
3816;DHT22;1923;48.154;11.536;2023-06-05T02:17:02;17.20;99.90
3816;DHT22;1923;48.154;11.536;2023-06-05T02:19:31;17.20;99.90
3816;DHT22;1923;48.154;11.536;2023-06-05T02:21:59;17.30;99.90
3816;DHT22;1923;48.154;11.536;2023-06-05T02:24:27;17.10;99.90
3816;DHT22;1923;48.154;11.536;2023-06-05T02:26:55;17.00;99.90
3816;DHT22;1923;48.154;11.536;2023-06-05T02:29:23;16.80;99.90
3816;DHT22;1923;48.154;11.536;2023-06-05T02:31:53;17.00;99.90
3816;DHT22;1923;48.154;11.536;2023-06-05T02:34:21;16.90;99.90
3816;DHT22;1923;48.154;11.536;2023-06-05T02:36:49;17.10;99.90
3816;DHT22;1923;48.154;11.536;2023-06-05T02:39:17;17.00;99.90
3816;DHT22;1923;48.154;11.536;2023-06-05T02:41:45;16.90;99.90
3816;DHT22;1923;48.154;11.536;2023-06-05T02:44:13;16.90;99.90
3816;DHT22;1923;48.154;11.536;2023-06-05T02:46:41;17.00;99.90
3816;DHT22;1923;48.154;11.536;2023-06-05T02:49:11;17.00;99.90
3816;DHT22;1923;48.154;11.536;2023-06-05T02:51:39;17.00;99.90
3816;DHT22;1923;48.154;11.536;2023-06-05T02:54:07;16.90;99.90
3816;DHT22;1923;48.154;11.536;2023-06-05T02:56:37;16.90;99.90
3816;DHT22;1923;48.154;11.536;2023-06-05T02:59:05;16.90;99.90
3816;DHT22;1923;48.154;11.536;2023-06-05T03:01:34;17.00;99.90
3816;DHT22;1923;48.154;11.536;2023-06-05T03:04:03;17.10;99.90
3816;DHT22;1923;48.154;11.536;2023-06-05T03:06:32;17.00;99.90
3816;DHT22;1923;48.154;11.536;2023-06-05T03:09:02;16.90;99.90
3816;DHT22;1923;48.154;11.536;2023-06-05T03:11:30;16.90;99.90
3816;DHT22;1923;48.154;11.536;2023-06-05T03:13:58;16.70;99.90
3816;DHT22;1923;48.154;11.536;2023-06-05T03:16:26;16.70;99.90
3816;DHT22;1923;48.154;11.536;2023-06-05T03:19:00;16.80;99.90
3816;DHT22;1923;48.154;11.536;2023-06-05T03:21:28;16.70;99.90
3816;DHT22;1923;48.154;11.536;2023-06-05T03:23:57;16.70;99.90
3816;DHT22;1923;48.154;11.536;2023-06-05T03:26:26;16.70;99.90
3816;DHT22;1923;48.154;11.536;2023-06-05T03:28:54;16.80;99.90
3816;DHT22;1923;48.154;11.536;2023-06-05T03:31:22;16.70;99.90
3816;DHT22;1923;48.154;11.536;2023-06-05T03:33:50;16.70;99.90
3816;DHT22;1923;48.154;11.536;2023-06-05T03:36:19;16.80;99.90
3816;DHT22;1923;48.154;11.536;2023-06-05T03:38:46;16.70;99.90
3816;DHT22;1923;48.154;11.536;2023-06-05T03:41:16;16.80;99.90
3816;DHT22;1923;48.154;11.536;2023-06-05T03:43:44;16.70;99.90
3816;DHT22;1923;48.154;11.536;2023-06-05T03:46:12;16.70;99.90
3816;DHT22;1923;48.154;11.536;2023-06-05T03:48:45;16.80;99.90
3816;DHT22;1923;48.154;11.536;2023-06-05T03:51:13;16.80;99.90
3816;DHT22;1923;48.154;11.536;2023-06-05T03:53:45;16.60;99.90
3816;DHT22;1923;48.154;11.536;2023-06-05T03:56:23;16.70;99.90
3816;DHT22;1923;48.154;11.536;2023-06-05T03:58:58;16.70;99.90
3816;DHT22;1923;48.154;11.536;2023-06-05T04:01:35;16.60;99.90
3816;DHT22;1923;48.154;11.536;2023-06-05T04:04:03;16.70;99.90
3816;DHT22;1923;48.154;11.536;2023-06-05T04:06:32;16.80;99.90
3816;DHT22;1923;48.154;11.536;2023-06-05T04:09:01;17.00;99.90
3816;DHT22;1923;48.154;11.536;2023-06-05T04:11:37;17.10;99.90
3816;DHT22;1923;48.154;11.536;2023-06-05T04:14:05;17.10;99.90
3816;DHT22;1923;48.154;11.536;2023-06-05T04:16:34;17.10;99.90
3816;DHT22;1923;48.154;11.536;2023-06-05T04:19:06;17.00;99.90
3816;DHT22;1923;48.154;11.536;2023-06-05T04:21:34;16.90;99.90
3816;DHT22;1923;48.154;11.536;2023-06-05T04:24:02;16.90;99.90
3816;DHT22;1923;48.154;11.536;2023-06-05T04:26:33;16.90;99.90
3816;DHT22;1923;48.154;11.536;2023-06-05T04:29:03;16.80;99.90
3816;DHT22;1923;48.154;11.536;2023-06-05T04:31:36;16.50;99.90
3816;DHT22;1923;48.154;11.536;2023-06-05T04:34:07;16.60;99.90
3816;DHT22;1923;48.154;11.536;2023-06-05T04:36:35;16.70;99.90
3816;DHT22;1923;48.154;11.536;2023-06-05T04:39:04;16.60;99.90
3816;DHT22;1923;48.154;11.536;2023-06-05T04:41:34;16.50;99.90
3816;DHT22;1923;48.154;11.536;2023-06-05T04:44:04;16.70;99.90
3816;DHT22;1923;48.154;11.536;2023-06-05T04:46:32;16.60;99.90
3816;DHT22;1923;48.154;11.536;2023-06-05T04:49:00;16.70;99.90
3816;DHT22;1923;48.154;11.536;2023-06-05T04:51:30;16.70;99.90
3816;DHT22;1923;48.154;11.536;2023-06-05T04:53:58;16.50;99.90
3816;DHT22;1923;48.154;11.536;2023-06-05T04:56:26;16.60;99.90
3816;DHT22;1923;48.154;11.536;2023-06-05T04:58:55;16.60;99.90
3816;DHT22;1923;48.154;11.536;2023-06-05T05:01:24;16.70;99.90
3816;DHT22;1923;48.154;11.536;2023-06-05T05:03:54;16.60;99.90
3816;DHT22;1923;48.154;11.536;2023-06-05T05:06:22;16.70;99.90
3816;DHT22;1923;48.154;11.536;2023-06-05T05:08:50;16.80;99.90
3816;DHT22;1923;48.154;11.536;2023-06-05T05:11:19;17.00;99.90
3816;DHT22;1923;48.154;11.536;2023-06-05T05:13:47;17.10;99.90
3816;DHT22;1923;48.154;11.536;2023-06-05T05:16:15;17.00;99.90
3816;DHT22;1923;48.154;11.536;2023-06-05T05:18:45;16.90;99.90
3816;DHT22;1923;48.154;11.536;2023-06-05T05:21:13;16.70;99.90
3816;DHT22;1923;48.154;11.536;2023-06-05T05:23:41;16.80;99.90
3816;DHT22;1923;48.154;11.536;2023-06-05T05:26:09;17.00;99.90
3816;DHT22;1923;48.154;11.536;2023-06-05T05:28:37;17.10;99.90
3816;DHT22;1923;48.154;11.536;2023-06-05T05:31:06;17.20;99.90
3816;DHT22;1923;48.154;11.536;2023-06-05T05:33:34;17.30;99.90
3816;DHT22;1923;48.154;11.536;2023-06-05T05:36:04;17.20;99.90
3816;DHT22;1923;48.154;11.536;2023-06-05T05:38:32;17.30;99.90
3816;DHT22;1923;48.154;11.536;2023-06-05T05:41:01;17.40;99.90
3816;DHT22;1923;48.154;11.536;2023-06-05T05:43:29;17.40;99.90
3816;DHT22;1923;48.154;11.536;2023-06-05T05:45:57;17.40;99.90
3816;DHT22;1923;48.154;11.536;2023-06-05T05:48:25;17.40;99.90
3816;DHT22;1923;48.154;11.536;2023-06-05T05:50:53;17.30;99.90
3816;DHT22;1923;48.154;11.536;2023-06-05T05:53:22;17.50;99.90
3816;DHT22;1923;48.154;11.536;2023-06-05T05:55:50;17.40;99.90
3816;DHT22;1923;48.154;11.536;2023-06-05T05:58:18;17.30;99.90
3816;DHT22;1923;48.154;11.536;2023-06-05T06:00:46;17.30;99.90
3816;DHT22;1923;48.154;11.536;2023-06-05T06:03:16;17.50;99.90
3816;DHT22;1923;48.154;11.536;2023-06-05T06:05:44;17.60;99.90
3816;DHT22;1923;48.154;11.536;2023-06-05T06:08:13;17.40;99.90
3816;DHT22;1923;48.154;11.536;2023-06-05T06:10:42;17.40;99.90
3816;DHT22;1923;48.154;11.536;2023-06-05T06:13:10;17.30;99.90
3816;DHT22;1923;48.154;11.536;2023-06-05T06:15:38;17.40;99.90
3816;DHT22;1923;48.154;11.536;2023-06-05T06:18:06;17.40;99.90
3816;DHT22;1923;48.154;11.536;2023-06-05T06:20:35;17.50;99.90
3816;DHT22;1923;48.154;11.536;2023-06-05T06:23:03;17.60;99.90
3816;DHT22;1923;48.154;11.536;2023-06-05T06:25:32;17.70;99.90
3816;DHT22;1923;48.154;11.536;2023-06-05T06:28:02;17.70;99.90
3816;DHT22;1923;48.154;11.536;2023-06-05T06:30:30;17.90;99.90
3816;DHT22;1923;48.154;11.536;2023-06-05T06:33:00;17.90;99.90
3816;DHT22;1923;48.154;11.536;2023-06-05T06:35:31;17.90;99.90
3816;DHT22;1923;48.154;11.536;2023-06-05T06:37:59;18.00;99.90
3816;DHT22;1923;48.154;11.536;2023-06-05T06:40:27;18.00;99.90
3816;DHT22;1923;48.154;11.536;2023-06-05T06:42:56;17.90;99.90
3816;DHT22;1923;48.154;11.536;2023-06-05T06:45:25;17.90;99.90
3816;DHT22;1923;48.154;11.536;2023-06-05T06:47:53;18.00;99.90
3816;DHT22;1923;48.154;11.536;2023-06-05T06:50:34;18.20;99.90
3816;DHT22;1923;48.154;11.536;2023-06-05T06:53:02;18.40;99.90
3816;DHT22;1923;48.154;11.536;2023-06-05T06:55:30;18.30;99.90
3816;DHT22;1923;48.154;11.536;2023-06-05T06:57:59;18.30;99.90
3816;DHT22;1923;48.154;11.536;2023-06-05T07:00:29;18.40;99.90
3816;DHT22;1923;48.154;11.536;2023-06-05T07:02:57;18.30;99.90
3816;DHT22;1923;48.154;11.536;2023-06-05T07:05:25;18.40;99.90
3816;DHT22;1923;48.154;11.536;2023-06-05T07:07:53;18.70;99.90
3816;DHT22;1923;48.154;11.536;2023-06-05T07:10:28;18.70;99.90
3816;DHT22;1923;48.154;11.536;2023-06-05T07:12:56;18.70;99.90
3816;DHT22;1923;48.154;11.536;2023-06-05T07:15:24;18.80;99.90
3816;DHT22;1923;48.154;11.536;2023-06-05T07:17:54;18.90;99.90
3816;DHT22;1923;48.154;11.536;2023-06-05T07:20:22;19.20;99.90
3816;DHT22;1923;48.154;11.536;2023-06-05T07:22:50;19.00;99.90
3816;DHT22;1923;48.154;11.536;2023-06-05T07:25:18;19.30;99.90
3816;DHT22;1923;48.154;11.536;2023-06-05T07:27:49;19.40;99.90
3816;DHT22;1923;48.154;11.536;2023-06-05T07:30:17;19.50;99.90
3816;DHT22;1923;48.154;11.536;2023-06-05T07:32:45;19.50;99.90
3816;DHT22;1923;48.154;11.536;2023-06-05T07:35:14;19.40;99.90
3816;DHT22;1923;48.154;11.536;2023-06-05T07:37:43;19.70;99.90
3816;DHT22;1923;48.154;11.536;2023-06-05T07:40:11;19.60;99.90
3816;DHT22;1923;48.154;11.536;2023-06-05T07:42:39;19.70;99.90
3816;DHT22;1923;48.154;11.536;2023-06-05T07:45:08;19.60;99.90
3816;DHT22;1923;48.154;11.536;2023-06-05T07:47:36;19.80;99.90
3816;DHT22;1923;48.154;11.536;2023-06-05T07:50:05;20.00;99.90
3816;DHT22;1923;48.154;11.536;2023-06-05T07:52:35;20.10;99.90
3816;DHT22;1923;48.154;11.536;2023-06-05T07:55:04;20.20;99.90
3816;DHT22;1923;48.154;11.536;2023-06-05T07:57:33;20.10;99.90
3816;DHT22;1923;48.154;11.536;2023-06-05T08:00:04;20.00;99.90
3816;DHT22;1923;48.154;11.536;2023-06-05T08:02:36;20.30;99.90
3816;DHT22;1923;48.154;11.536;2023-06-05T08:05:06;20.60;99.90
3816;DHT22;1923;48.154;11.536;2023-06-05T08:07:36;20.80;99.90
3816;DHT22;1923;48.154;11.536;2023-06-05T08:10:05;21.10;99.90
3816;DHT22;1923;48.154;11.536;2023-06-05T08:12:34;21.20;99.90
3816;DHT22;1923;48.154;11.536;2023-06-05T08:15:02;21.20;99.90
3816;DHT22;1923;48.154;11.536;2023-06-05T08:17:30;21.00;99.90
3816;DHT22;1923;48.154;11.536;2023-06-05T08:19:58;21.50;99.90
3816;DHT22;1923;48.154;11.536;2023-06-05T08:22:27;21.90;99.90
3816;DHT22;1923;48.154;11.536;2023-06-05T08:24:57;22.30;99.90
3816;DHT22;1923;48.154;11.536;2023-06-05T08:27:27;22.60;99.90
3816;DHT22;1923;48.154;11.536;2023-06-05T08:29:54;23.20;99.90
3816;DHT22;1923;48.154;11.536;2023-06-05T08:32:23;23.80;99.90
3816;DHT22;1923;48.154;11.536;2023-06-05T08:34:51;23.90;99.90
3816;DHT22;1923;48.154;11.536;2023-06-05T08:37:19;24.30;99.90
3816;DHT22;1923;48.154;11.536;2023-06-05T08:39:48;24.50;99.90
3816;DHT22;1923;48.154;11.536;2023-06-05T08:42:18;24.70;99.90
3816;DHT22;1923;48.154;11.536;2023-06-05T08:44:47;25.20;99.90
3816;DHT22;1923;48.154;11.536;2023-06-05T08:47:28;24.50;99.90
3816;DHT22;1923;48.154;11.536;2023-06-05T08:49:57;24.30;99.90
3816;DHT22;1923;48.154;11.536;2023-06-05T08:52:33;23.70;99.90
3816;DHT22;1923;48.154;11.536;2023-06-05T08:55:03;24.20;99.90
3816;DHT22;1923;48.154;11.536;2023-06-05T08:57:34;25.10;99.90
3816;DHT22;1923;48.154;11.536;2023-06-05T09:00:05;25.50;99.10
3816;DHT22;1923;48.154;11.536;2023-06-05T09:02:34;25.50;98.80
3816;DHT22;1923;48.154;11.536;2023-06-05T09:05:04;26.00;98.70
3816;DHT22;1923;48.154;11.536;2023-06-05T09:07:33;26.40;97.70
3816;DHT22;1923;48.154;11.536;2023-06-05T09:10:01;26.20;97.10
3816;DHT22;1923;48.154;11.536;2023-06-05T09:12:29;26.10;97.20
3816;DHT22;1923;48.154;11.536;2023-06-05T09:14:58;26.00;97.30
3816;DHT22;1923;48.154;11.536;2023-06-05T09:17:26;25.90;97.10
3816;DHT22;1923;48.154;11.536;2023-06-05T09:19:54;25.90;97.00
3816;DHT22;1923;48.154;11.536;2023-06-05T09:22:32;26.10;96.40
3816;DHT22;1923;48.154;11.536;2023-06-05T09:25:01;26.20;96.10
3816;DHT22;1923;48.154;11.536;2023-06-05T09:27:29;26.40;95.80
3816;DHT22;1923;48.154;11.536;2023-06-05T09:30:03;27.00;95.20
3816;DHT22;1923;48.154;11.536;2023-06-05T09:32:32;27.10;94.20
3816;DHT22;1923;48.154;11.536;2023-06-05T09:35:00;28.70;92.90
3816;DHT22;1923;48.154;11.536;2023-06-05T09:37:32;29.60;91.10
3816;DHT22;1923;48.154;11.536;2023-06-05T09:40:02;29.10;91.10
3816;DHT22;1923;48.154;11.536;2023-06-05T09:42:31;28.40;91.80
3816;DHT22;1923;48.154;11.536;2023-06-05T09:45:02;28.10;92.30
3816;DHT22;1923;48.154;11.536;2023-06-05T09:47:31;27.90;92.00
3816;DHT22;1923;48.154;11.536;2023-06-05T09:50:22;28.40;90.30
3816;DHT22;1923;48.154;11.536;2023-06-05T09:52:51;28.00;90.00
3816;DHT22;1923;48.154;11.536;2023-06-05T09:55:21;28.90;90.50
3816;DHT22;1923;48.154;11.536;2023-06-05T09:57:51;29.40;89.20
3816;DHT22;1923;48.154;11.536;2023-06-05T10:00:21;30.60;87.60
3816;DHT22;1923;48.154;11.536;2023-06-05T10:02:50;31.60;82.50
3816;DHT22;1923;48.154;11.536;2023-06-05T10:05:20;32.30;79.40
3816;DHT22;1923;48.154;11.536;2023-06-05T10:07:49;31.70;80.00
3816;DHT22;1923;48.154;11.536;2023-06-05T10:10:21;31.30;79.70
3816;DHT22;1923;48.154;11.536;2023-06-05T10:12:50;31.00;80.30
3816;DHT22;1923;48.154;11.536;2023-06-05T10:15:24;31.10;79.30
3816;DHT22;1923;48.154;11.536;2023-06-05T10:17:54;31.20;78.50
3816;DHT22;1923;48.154;11.536;2023-06-05T10:20:24;31.10;78.10
3816;DHT22;1923;48.154;11.536;2023-06-05T10:22:52;30.70;79.20
3816;DHT22;1923;48.154;11.536;2023-06-05T10:25:22;30.90;79.80
3816;DHT22;1923;48.154;11.536;2023-06-05T10:28:01;31.00;77.60
3816;DHT22;1923;48.154;11.536;2023-06-05T10:30:54;31.90;73.50
3816;DHT22;1923;48.154;11.536;2023-06-05T10:33:36;31.70;73.10
3816;DHT22;1923;48.154;11.536;2023-06-05T10:36:14;30.90;73.40
3816;DHT22;1923;48.154;11.536;2023-06-05T10:38:47;31.80;73.20
3816;DHT22;1923;48.154;11.536;2023-06-05T10:41:17;32.60;69.50
3816;DHT22;1923;48.154;11.536;2023-06-05T10:43:46;31.20;72.00
3816;DHT22;1923;48.154;11.536;2023-06-05T10:46:33;30.60;74.10
3816;DHT22;1923;48.154;11.536;2023-06-05T10:49:09;30.00;74.70
3816;DHT22;1923;48.154;11.536;2023-06-05T10:51:39;29.40;77.40
3816;DHT22;1923;48.154;11.536;2023-06-05T10:54:10;29.00;76.30
3816;DHT22;1923;48.154;11.536;2023-06-05T10:56:56;28.70;76.50
3816;DHT22;1923;48.154;11.536;2023-06-05T10:59:27;28.40;77.70
3816;DHT22;1923;48.154;11.536;2023-06-05T11:02:24;29.00;76.00
3816;DHT22;1923;48.154;11.536;2023-06-05T11:05:08;29.90;75.50
3816;DHT22;1923;48.154;11.536;2023-06-05T11:07:41;29.70;74.60
3816;DHT22;1923;48.154;11.536;2023-06-05T11:10:14;30.60;74.20
3816;DHT22;1923;48.154;11.536;2023-06-05T11:12:58;30.20;73.80
3816;DHT22;1923;48.154;11.536;2023-06-05T11:15:40;29.20;74.80
3816;DHT22;1923;48.154;11.536;2023-06-05T11:18:33;27.90;77.10
3816;DHT22;1923;48.154;11.536;2023-06-05T11:21:02;26.90;80.50
3816;DHT22;1923;48.154;11.536;2023-06-05T11:23:31;26.30;81.70
3816;DHT22;1923;48.154;11.536;2023-06-05T11:29:11;25.90;82.00
3816;DHT22;1923;48.154;11.536;2023-06-05T11:31:40;25.60;81.80
3816;DHT22;1923;48.154;11.536;2023-06-05T11:34:12;25.50;81.30
3816;DHT22;1923;48.154;11.536;2023-06-05T11:36:41;25.10;82.90
3816;DHT22;1923;48.154;11.536;2023-06-05T11:39:09;25.00;84.70
3816;DHT22;1923;48.154;11.536;2023-06-05T11:41:46;24.70;84.50
3816;DHT22;1923;48.154;11.536;2023-06-05T11:44:15;24.80;86.00
3816;DHT22;1923;48.154;11.536;2023-06-05T11:46:44;24.70;86.80
3816;DHT22;1923;48.154;11.536;2023-06-05T11:49:25;24.90;87.80
3816;DHT22;1923;48.154;11.536;2023-06-05T11:51:54;24.70;87.40
3816;DHT22;1923;48.154;11.536;2023-06-05T11:54:26;24.50;88.20
3816;DHT22;1923;48.154;11.536;2023-06-05T11:57:00;24.20;85.80
3816;DHT22;1923;48.154;11.536;2023-06-05T11:59:35;24.30;88.80
3816;DHT22;1923;48.154;11.536;2023-06-05T12:02:04;24.40;90.20
3816;DHT22;1923;48.154;11.536;2023-06-05T12:04:34;24.70;87.60
3816;DHT22;1923;48.154;11.536;2023-06-05T12:07:03;24.70;87.10
3816;DHT22;1923;48.154;11.536;2023-06-05T12:09:31;24.70;89.60
3816;DHT22;1923;48.154;11.536;2023-06-05T12:12:06;24.70;88.80
3816;DHT22;1923;48.154;11.536;2023-06-05T12:14:36;24.40;90.30
3816;DHT22;1923;48.154;11.536;2023-06-05T12:17:11;24.10;91.20
3816;DHT22;1923;48.154;11.536;2023-06-05T12:19:40;24.10;91.20
3816;DHT22;1923;48.154;11.536;2023-06-05T12:22:08;24.00;91.80
3816;DHT22;1923;48.154;11.536;2023-06-05T12:24:37;24.10;91.70
3816;DHT22;1923;48.154;11.536;2023-06-05T12:27:05;24.10;91.40
3816;DHT22;1923;48.154;11.536;2023-06-05T12:29:36;23.70;91.60
3816;DHT22;1923;48.154;11.536;2023-06-05T12:32:20;23.70;92.20
3816;DHT22;1923;48.154;11.536;2023-06-05T12:34:51;24.10;91.90
3816;DHT22;1923;48.154;11.536;2023-06-05T12:37:31;23.80;91.30
3816;DHT22;1923;48.154;11.536;2023-06-05T12:40:02;23.80;91.50
3816;DHT22;1923;48.154;11.536;2023-06-05T12:42:36;24.00;91.60
3816;DHT22;1923;48.154;11.536;2023-06-05T12:45:05;24.10;92.10
3816;DHT22;1923;48.154;11.536;2023-06-05T12:47:34;23.90;92.50
3816;DHT22;1923;48.154;11.536;2023-06-05T12:50:05;23.60;92.80
3816;DHT22;1923;48.154;11.536;2023-06-05T12:52:38;23.40;93.40
3816;DHT22;1923;48.154;11.536;2023-06-05T12:55:06;23.10;93.70
3816;DHT22;1923;48.154;11.536;2023-06-05T12:57:35;23.10;94.10
3816;DHT22;1923;48.154;11.536;2023-06-05T13:00:04;23.00;93.80
3816;DHT22;1923;48.154;11.536;2023-06-05T13:02:41;23.00;93.50
3816;DHT22;1923;48.154;11.536;2023-06-05T13:05:13;23.00;94.20
3816;DHT22;1923;48.154;11.536;2023-06-05T13:07:42;23.00;94.00
3816;DHT22;1923;48.154;11.536;2023-06-05T13:10:10;23.30;94.40
3816;DHT22;1923;48.154;11.536;2023-06-05T13:12:38;23.10;94.40
3816;DHT22;1923;48.154;11.536;2023-06-05T13:15:08;23.30;94.60
3816;DHT22;1923;48.154;11.536;2023-06-05T13:17:36;23.50;94.60
3816;DHT22;1923;48.154;11.536;2023-06-05T13:20:06;23.40;94.50
3816;DHT22;1923;48.154;11.536;2023-06-05T13:22:37;23.40;94.20
3816;DHT22;1923;48.154;11.536;2023-06-05T13:25:06;22.80;95.50
3816;DHT22;1923;48.154;11.536;2023-06-05T13:27:36;23.00;96.00
3816;DHT22;1923;48.154;11.536;2023-06-05T13:30:05;23.20;96.00
3816;DHT22;1923;48.154;11.536;2023-06-05T13:32:34;23.10;95.90
3816;DHT22;1923;48.154;11.536;2023-06-05T13:35:04;22.80;96.40
3816;DHT22;1923;48.154;11.536;2023-06-05T13:37:32;22.80;96.70
3816;DHT22;1923;48.154;11.536;2023-06-05T13:40:02;22.70;96.90
3816;DHT22;1923;48.154;11.536;2023-06-05T13:42:33;22.70;97.10
3816;DHT22;1923;48.154;11.536;2023-06-05T13:45:01;22.60;97.40
3816;DHT22;1923;48.154;11.536;2023-06-05T13:47:29;22.80;97.00
3816;DHT22;1923;48.154;11.536;2023-06-05T13:49:57;22.70;96.90
3816;DHT22;1923;48.154;11.536;2023-06-05T13:52:26;22.70;97.50
3816;DHT22;1923;48.154;11.536;2023-06-05T13:54:54;22.90;96.90
3816;DHT22;1923;48.154;11.536;2023-06-05T13:57:24;22.80;96.80
3816;DHT22;1923;48.154;11.536;2023-06-05T13:59:52;22.80;97.30
3816;DHT22;1923;48.154;11.536;2023-06-05T14:02:20;22.80;97.20
3816;DHT22;1923;48.154;11.536;2023-06-05T14:04:48;22.70;97.20
3816;DHT22;1923;48.154;11.536;2023-06-05T14:07:16;22.60;97.20
3816;DHT22;1923;48.154;11.536;2023-06-05T14:09:44;22.60;97.50
3816;DHT22;1923;48.154;11.536;2023-06-05T14:12:12;22.80;97.20
3816;DHT22;1923;48.154;11.536;2023-06-05T14:14:41;22.50;96.80
3816;DHT22;1923;48.154;11.536;2023-06-05T14:17:09;22.50;96.90
3816;DHT22;1923;48.154;11.536;2023-06-05T14:19:38;22.30;97.70
3816;DHT22;1923;48.154;11.536;2023-06-05T14:22:06;22.20;97.30
3816;DHT22;1923;48.154;11.536;2023-06-05T14:24:34;22.20;97.90
3816;DHT22;1923;48.154;11.536;2023-06-05T14:27:03;22.30;97.40
3816;DHT22;1923;48.154;11.536;2023-06-05T14:29:31;22.30;98.00
3816;DHT22;1923;48.154;11.536;2023-06-05T14:32:04;22.20;97.90
3816;DHT22;1923;48.154;11.536;2023-06-05T14:34:32;22.20;98.20
3816;DHT22;1923;48.154;11.536;2023-06-05T14:36:59;22.20;98.10
3816;DHT22;1923;48.154;11.536;2023-06-05T14:39:27;22.20;97.80
3816;DHT22;1923;48.154;11.536;2023-06-05T14:41:56;22.20;97.50
3816;DHT22;1923;48.154;11.536;2023-06-05T14:44:23;22.30;97.70
3816;DHT22;1923;48.154;11.536;2023-06-05T14:46:53;22.40;97.80
3816;DHT22;1923;48.154;11.536;2023-06-05T14:49:23;22.50;97.90
3816;DHT22;1923;48.154;11.536;2023-06-05T14:51:52;22.60;98.00
3816;DHT22;1923;48.154;11.536;2023-06-05T14:54:20;22.70;97.80
3816;DHT22;1923;48.154;11.536;2023-06-05T14:56:47;22.70;97.80
3816;DHT22;1923;48.154;11.536;2023-06-05T14:59:15;22.80;97.80
3816;DHT22;1923;48.154;11.536;2023-06-05T15:01:46;22.90;97.20
3816;DHT22;1923;48.154;11.536;2023-06-05T15:04:15;23.00;96.90
3816;DHT22;1923;48.154;11.536;2023-06-05T15:06:45;23.00;96.70
3816;DHT22;1923;48.154;11.536;2023-06-05T15:09:13;23.00;96.90
3816;DHT22;1923;48.154;11.536;2023-06-05T15:11:41;22.80;97.20
3816;DHT22;1923;48.154;11.536;2023-06-05T15:14:09;22.70;97.50
3816;DHT22;1923;48.154;11.536;2023-06-05T15:16:37;22.70;97.80
3816;DHT22;1923;48.154;11.536;2023-06-05T15:19:08;22.60;98.10
3816;DHT22;1923;48.154;11.536;2023-06-05T15:21:37;22.70;98.40
3816;DHT22;1923;48.154;11.536;2023-06-05T15:24:07;22.70;97.90
3816;DHT22;1923;48.154;11.536;2023-06-05T15:26:35;22.70;97.80
3816;DHT22;1923;48.154;11.536;2023-06-05T15:29:03;22.70;97.40
3816;DHT22;1923;48.154;11.536;2023-06-05T15:31:32;22.60;97.70
3816;DHT22;1923;48.154;11.536;2023-06-05T15:34:00;22.40;97.90
3816;DHT22;1923;48.154;11.536;2023-06-05T15:36:28;22.40;98.30
3816;DHT22;1923;48.154;11.536;2023-06-05T15:38:56;22.60;98.40
3816;DHT22;1923;48.154;11.536;2023-06-05T15:41:26;22.70;98.30
3816;DHT22;1923;48.154;11.536;2023-06-05T15:43:54;22.90;98.20
3816;DHT22;1923;48.154;11.536;2023-06-05T15:46:22;22.80;98.40
3816;DHT22;1923;48.154;11.536;2023-06-05T15:48:50;22.70;98.30
3816;DHT22;1923;48.154;11.536;2023-06-05T15:51:18;22.50;98.20
3816;DHT22;1923;48.154;11.536;2023-06-05T15:53:46;22.10;98.60
3816;DHT22;1923;48.154;11.536;2023-06-05T15:56:27;22.20;99.10
3816;DHT22;1923;48.154;11.536;2023-06-05T15:58:55;21.90;98.90
3816;DHT22;1923;48.154;11.536;2023-06-05T16:01:23;21.70;99.50
3816;DHT22;1923;48.154;11.536;2023-06-05T16:03:51;21.60;99.60
3816;DHT22;1923;48.154;11.536;2023-06-05T16:06:19;21.60;99.90